Time,TemperatureF,DewpointF,PressureIn,WindDirection,WindDirectionDegrees,WindSpeedMPH,WindSpeedGustMPH,Humidity,HourlyPrecipIn,Conditions,Clouds,dailyrainin,SoftwareType,DateUTC
2013-04-25 00:03:00,46.0,40.0,29.38,North,0,0.0,5.0,79,0.00,,,0.20,,2013-04-25 04:03:00,
2013-04-25 00:13:00,46.0,40.0,29.38,North,0,0.0,5.0,79,0.00,,,0.20,,2013-04-25 04:13:00,
2013-04-25 00:23:00,46.0,40.0,29.38,WSW,244,3.0,4.0,78,0.00,,,0.20,,2013-04-25 04:23:00,
2013-04-25 00:33:00,46.0,40.0,29.38,WSW,244,3.0,4.0,78,0.00,,,0.20,,2013-04-25 04:33:00,
2013-04-25 00:43:00,46.0,40.0,29.38,WSW,244,3.0,4.0,78,0.00,,,0.20,,2013-04-25 04:43:00,
2013-04-25 00:52:00,46.0,40.0,29.38,WSW,244,3.0,4.0,78,0.00,,,0.20,,2013-04-25 04:52:00,
2013-04-25 01:03:00,42.0,38.0,29.38,North,0,0.0,0.0,84,0.00,,,0.20,,2013-04-25 05:03:00,
2013-04-25 01:12:00,42.0,38.0,29.38,North,0,0.0,0.0,84,0.00,,,0.20,,2013-04-25 05:12:00,
2013-04-25 01:22:00,42.0,38.0,29.38,North,0,0.0,0.0,84,0.00,,,0.20,,2013-04-25 05:22:00,
2013-04-25 01:32:00,41.0,38.0,29.41,North,0,0.0,0.0,90,0.00,,,0.20,,2013-04-25 05:32:00,
2013-04-25 01:42:00,41.0,38.0,29.41,North,0,0.0,0.0,90,0.00,,,0.20,,2013-04-25 05:42:00,
2013-04-25 01:52:00,42.0,40.0,29.41,North,0,0.0,0.0,93,0.00,,,0.20,,2013-04-25 05:52:00,
2013-04-25 02:02:00,42.0,40.0,29.41,North,0,0.0,0.0,93,0.00,,,0.20,,2013-04-25 06:02:00,
2013-04-25 02:12:00,42.0,40.0,29.41,North,0,0.0,0.0,93,0.00,,,0.20,,2013-04-25 06:12:00,
2013-04-25 02:22:00,43.0,41.0,29.41,North,0,0.0,0.0,92,0.00,,,0.20,,2013-04-25 06:22:00,
2013-04-25 02:32:00,43.0,40.0,29.41,North,0,0.0,0.0,89,0.00,,,0.20,,2013-04-25 06:32:00,
2013-04-25 02:42:00,43.0,40.0,29.41,North,0,0.0,0.0,89,0.00,,,0.20,,2013-04-25 06:42:00,
2013-04-25 02:52:00,43.0,40.0,29.38,North,0,0.0,0.0,88,0.00,,,0.20,,2013-04-25 06:52:00,
2013-04-25 03:02:00,43.0,39.0,29.38,North,0,0.0,0.0,86,0.00,,,0.20,,2013-04-25 07:02:00,
2013-04-25 03:12:00,43.0,39.0,29.38,North,0,0.0,0.0,86,0.00,,,0.20,,2013-04-25 07:12:00,
2013-04-25 03:22:00,43.0,38.0,29.38,North,0,0.0,0.0,81,0.00,,,0.20,,2013-04-25 07:22:00,
2013-04-25 03:32:00,43.0,37.0,29.38,North,0,0.0,3.0,79,0.00,,,0.20,,2013-04-25 07:32:00,
2013-04-25 03:42:00,43.0,37.0,29.38,North,0,0.0,3.0,79,0.00,,,0.20,,2013-04-25 07:42:00,
2013-04-25 03:52:00,42.0,37.0,29.38,North,0,0.0,4.0,82,0.00,,,0.20,,2013-04-25 07:52:00,
2013-04-25 04:02:00,42.0,37.0,29.38,North,0,0.0,4.0,81,0.00,,,0.20,,2013-04-25 08:02:00,
2013-04-25 04:11:00,42.0,37.0,29.38,North,0,0.0,4.0,81,0.00,,,0.20,,2013-04-25 08:11:00,
2013-04-25 04:21:00,42.0,37.0,29.38,North,0,0.0,4.0,81,0.00,,,0.20,,2013-04-25 08:21:00,
2013-04-25 04:32:00,40.0,35.0,29.38,North,0,0.0,0.0,83,0.00,,,0.20,,2013-04-25 08:32:00,
2013-04-25 04:42:00,40.0,35.0,29.38,North,0,0.0,0.0,83,0.00,,,0.20,,2013-04-25 08:42:00,
2013-04-25 04:52:00,38.0,35.0,29.38,North,0,0.0,0.0,88,0.00,,,0.20,,2013-04-25 08:52:00,
2013-04-25 05:01:00,38.0,35.0,29.38,North,0,0.0,0.0,88,0.00,,,0.20,,2013-04-25 09:01:00,
2013-04-25 05:11:00,38.0,35.0,29.38,North,0,0.0,0.0,88,0.00,,,0.20,,2013-04-25 09:11:00,
2013-04-25 05:21:00,37.0,36.0,29.38,North,0,0.0,0.0,95,0.00,,,0.20,,2013-04-25 09:21:00,
2013-04-25 05:33:00,36.0,35.0,29.38,North,0,0.0,0.0,96,0.00,,,0.20,,2013-04-25 09:33:00,
2013-04-25 05:42:00,36.0,35.0,29.38,North,0,0.0,0.0,96,0.00,,,0.20,,2013-04-25 09:42:00,
2013-04-25 05:52:00,36.0,35.0,29.41,North,0,0.0,0.0,97,0.00,,,0.20,,2013-04-25 09:52:00,
2013-04-25 06:02:00,35.0,34.0,29.41,North,0,0.0,0.0,98,0.00,,,0.20,,2013-04-25 10:02:00,
2013-04-25 06:03:00,35.0,34.0,29.41,North,0,0.0,0.0,97,0.00,,,0.20,,2013-04-25 10:03:00,
2013-04-25 06:12:00,35.0,34.0,29.41,North,0,0.0,0.0,97,0.00,,,0.20,,2013-04-25 10:12:00,
2013-04-25 06:22:00,35.0,34.0,29.41,North,0,0.0,0.0,98,0.00,,,0.20,,2013-04-25 10:22:00,
2013-04-25 06:33:00,35.0,34.0,29.41,North,0,0.0,0.0,98,0.00,,,0.20,,2013-04-25 10:33:00,
2013-04-25 06:42:00,35.0,34.0,29.41,North,0,0.0,0.0,98,0.00,,,0.20,,2013-04-25 10:42:00,
2013-04-25 06:53:00,35.0,34.0,29.41,North,0,0.0,0.0,98,0.00,,,0.20,,2013-04-25 10:53:00,
2013-04-25 07:22:00,34.0,34.0,29.41,North,0,0.0,0.0,98,0.00,,,0.20,,2013-04-25 11:22:00,
2013-04-25 07:32:00,35.0,34.0,29.41,North,0,0.0,0.0,98,0.00,,,0.20,,2013-04-25 11:32:00,
2013-04-25 07:42:00,35.0,34.0,29.41,North,0,0.0,0.0,98,0.00,,,0.20,,2013-04-25 11:42:00,
2013-04-25 07:51:00,35.0,34.0,29.41,North,0,0.0,0.0,98,0.00,,,0.20,,2013-04-25 11:51:00,
2013-04-25 08:01:00,35.0,34.0,29.41,North,0,0.0,0.0,98,0.00,,,0.20,,2013-04-25 12:01:00,
2013-04-25 08:12:00,35.0,34.0,29.41,North,0,0.0,0.0,98,0.00,,,0.20,,2013-04-25 12:12:00,
2013-04-25 08:22:00,36.0,35.0,29.44,North,0,0.0,0.0,98,0.00,,,0.20,,2013-04-25 12:22:00,
2013-04-25 08:32:00,56.0,44.0,29.44,North,0,0.0,0.0,64,0.00,,,0.20,,2013-04-25 12:32:00,
2013-04-25 08:42:00,56.0,44.0,29.44,North,0,0.0,0.0,64,0.00,,,0.20,,2013-04-25 12:42:00,
2013-04-25 08:51:00,61.0,40.0,29.44,North,0,0.0,0.0,45,0.00,,,0.20,,2013-04-25 12:51:00,
2013-04-25 09:02:00,62.0,39.0,29.44,North,0,0.0,0.0,43,0.00,,,0.20,,2013-04-25 13:02:00,
2013-04-25 09:11:00,62.0,39.0,29.44,North,0,0.0,0.0,43,0.00,,,0.20,,2013-04-25 13:11:00,
2013-04-25 09:21:00,59.0,34.0,29.44,SSW,199,3.0,4.0,39,0.00,,,0.20,,2013-04-25 13:21:00,
2013-04-25 09:32:00,59.0,34.0,29.44,SSW,199,3.0,4.0,39,0.00,,,0.20,,2013-04-25 13:32:00,
2013-04-25 09:42:00,59.0,34.0,29.44,SSW,199,3.0,4.0,39,0.00,,,0.20,,2013-04-25 13:42:00,
2013-04-25 09:53:00,60.0,34.0,29.47,SSW,194,3.0,7.0,37,0.00,,,0.20,,2013-04-25 13:53:00,
2013-04-25 10:02:00,60.0,34.0,29.47,SSW,194,3.0,7.0,37,0.00,,,0.20,,2013-04-25 14:02:00,
2013-04-25 10:11:00,60.0,34.0,29.47,SSW,194,3.0,7.0,37,0.00,,,0.20,,2013-04-25 14:11:00,
2013-04-25 10:21:00,56.0,31.0,29.47,SSW,203,4.0,8.0,38,0.00,,,0.20,,2013-04-25 14:21:00,
2013-04-25 10:32:00,55.0,30.0,29.50,SSW,210,4.0,7.0,38,0.00,,,0.20,,2013-04-25 14:32:00,
2013-04-25 10:42:00,55.0,30.0,29.50,SSW,210,4.0,7.0,38,0.00,,,0.20,,2013-04-25 14:42:00,
2013-04-25 10:51:00,58.0,33.0,29.50,SSW,204,5.0,8.0,38,0.00,,,0.20,,2013-04-25 14:51:00,
2013-04-25 11:02:00,54.0,31.0,29.50,North,0,0.0,9.0,42,0.00,,,0.20,,2013-04-25 15:02:00,
2013-04-25 11:11:00,54.0,31.0,29.50,North,0,0.0,9.0,42,0.00,,,0.20,,2013-04-25 15:11:00,
2013-04-25 11:21:00,54.0,31.0,29.50,North,0,0.0,9.0,42,0.00,,,0.20,,2013-04-25 15:21:00,
2013-04-25 11:33:00,54.0,34.0,29.50,South,176,4.0,7.0,47,0.00,,,0.20,,2013-04-25 15:33:00,
2013-04-25 11:42:00,54.0,34.0,29.50,South,176,4.0,7.0,47,0.00,,,0.20,,2013-04-25 15:42:00,
2013-04-25 11:53:00,54.0,34.0,29.50,South,176,4.0,7.0,47,0.00,,,0.20,,2013-04-25 15:53:00,
2013-04-25 12:02:00,54.0,35.0,29.50,SSW,205,5.0,7.0,48,0.00,,,0.20,,2013-04-25 16:02:00,
2013-04-25 12:13:00,54.0,35.0,29.50,SSW,205,5.0,7.0,48,0.00,,,0.20,,2013-04-25 16:13:00,
2013-04-25 12:24:00,56.0,34.0,29.50,ESE,119,4.0,7.0,44,0.00,,,0.20,,2013-04-25 16:24:00,
2013-04-25 12:33:00,57.0,34.0,29.50,South,181,4.0,8.0,42,0.00,,,0.20,,2013-04-25 16:33:00,
2013-04-25 12:43:00,57.0,34.0,29.50,South,181,4.0,8.0,42,0.00,,,0.20,,2013-04-25 16:43:00,
2013-04-25 12:52:00,57.0,35.0,29.50,South,178,3.0,7.0,43,0.00,,,0.20,,2013-04-25 16:52:00,
2013-04-25 13:02:00,59.0,38.0,29.50,North,0,0.0,5.0,46,0.00,,,0.20,,2013-04-25 17:02:00,
2013-04-25 13:11:00,59.0,38.0,29.50,North,0,0.0,5.0,46,0.00,,,0.20,,2013-04-25 17:11:00,
2013-04-25 13:22:00,59.0,35.0,29.50,NNE,21,4.0,6.0,41,0.00,,,0.20,,2013-04-25 17:22:00,
2013-04-25 13:32:00,59.0,35.0,29.50,NNE,21,4.0,6.0,41,0.00,,,0.20,,2013-04-25 17:32:00,
2013-04-25 13:42:00,59.0,35.0,29.50,NNE,21,4.0,6.0,41,0.00,,,0.20,,2013-04-25 17:42:00,
2013-04-25 13:53:00,60.0,37.0,29.50,East,90,4.0,6.0,42,0.00,,,0.20,,2013-04-25 17:53:00,
2013-04-25 14:02:00,60.0,37.0,29.50,East,90,4.0,6.0,42,0.00,,,0.20,,2013-04-25 18:02:00,
2013-04-25 14:11:00,60.0,37.0,29.50,East,90,4.0,6.0,42,0.00,,,0.20,,2013-04-25 18:11:00,
2013-04-25 14:22:00,61.0,33.0,29.47,SE,142,4.0,7.0,35,0.00,,,0.16,,2013-04-25 18:22:00,
2013-04-25 14:32:00,61.0,33.0,29.47,SSE,161,5.0,7.0,35,0.00,,,0.16,,2013-04-25 18:32:00,
2013-04-25 14:43:00,61.0,33.0,29.47,SSE,161,5.0,7.0,35,0.00,,,0.16,,2013-04-25 18:43:00,
2013-04-25 14:52:00,62.0,34.0,29.47,South,187,3.0,6.0,35,0.00,,,0.16,,2013-04-25 18:52:00,
2013-04-25 15:02:00,61.0,33.0,29.47,SW,219,4.0,7.0,35,0.00,,,0.12,,2013-04-25 19:02:00,
2013-04-25 15:12:00,61.0,33.0,29.47,SW,219,4.0,7.0,35,0.00,,,0.12,,2013-04-25 19:12:00,
2013-04-25 15:21:00,62.0,33.0,29.47,SE,124,3.0,6.0,34,0.00,,,0.12,,2013-04-25 19:21:00,
2013-04-25 15:32:00,62.0,33.0,29.47,SE,124,3.0,6.0,34,0.00,,,0.12,,2013-04-25 19:32:00,
2013-04-25 15:42:00,62.0,33.0,29.47,SE,124,3.0,6.0,34,0.00,,,0.12,,2013-04-25 19:42:00,
2013-04-25 15:52:00,63.0,34.0,29.47,South,183,3.0,6.0,34,0.00,,,0.12,,2013-04-25 19:52:00,
2013-04-25 16:02:00,63.0,34.0,29.47,SSW,198,3.0,5.0,34,0.00,,,0.12,,2013-04-25 20:02:00,
2013-04-25 16:11:00,63.0,34.0,29.47,SSW,198,3.0,5.0,34,0.00,,,0.12,,2013-04-25 20:11:00,
2013-04-25 16:22:00,63.0,34.0,29.47,SSW,198,3.0,5.0,34,0.00,,,0.12,,2013-04-25 20:22:00,
2013-04-25 16:32:00,64.0,34.0,29.44,East,97,3.0,6.0,33,0.00,,,0.12,,2013-04-25 20:32:00,
2013-04-25 16:42:00,64.0,34.0,29.44,East,97,3.0,6.0,33,0.00,,,0.12,,2013-04-25 20:42:00,
2013-04-25 16:52:00,63.0,33.0,29.44,SSW,199,3.0,7.0,33,0.00,,,0.12,,2013-04-25 20:52:00,
2013-04-25 17:01:00,63.0,33.0,29.44,SSW,199,3.0,7.0,33,0.00,,,0.12,,2013-04-25 21:01:00,
2013-04-25 17:11:00,63.0,33.0,29.44,SSW,199,3.0,7.0,33,0.00,,,0.12,,2013-04-25 21:11:00,
2013-04-25 17:22:00,64.0,34.0,29.44,ENE,68,4.0,9.0,33,0.00,,,0.12,,2013-04-25 21:22:00,
2013-04-25 17:33:00,63.0,33.0,29.44,NW,313,4.0,5.0,32,0.00,,,0.12,,2013-04-25 21:33:00,
2013-04-25 17:42:00,63.0,33.0,29.44,NW,313,4.0,5.0,32,0.00,,,0.12,,2013-04-25 21:42:00,
2013-04-25 17:52:00,63.0,33.0,29.44,NW,313,4.0,5.0,32,0.00,,,0.12,,2013-04-25 21:52:00,
2013-04-25 18:03:00,63.0,34.0,29.44,NW,311,4.0,6.0,34,0.00,,,0.12,,2013-04-25 22:03:00,
2013-04-25 18:12:00,63.0,34.0,29.44,NW,311,4.0,6.0,34,0.00,,,0.12,,2013-04-25 22:12:00,
2013-04-25 18:22:00,62.0,33.0,29.44,North,0,0.0,7.0,34,0.00,,,0.00,,2013-04-25 22:22:00,
2013-04-25 18:33:00,62.0,33.0,29.44,North,0,0.0,7.0,34,0.00,,,0.00,,2013-04-25 22:33:00,
2013-04-25 18:42:00,62.0,33.0,29.44,North,0,0.0,7.0,34,0.00,,,0.00,,2013-04-25 22:42:00,
2013-04-25 18:53:00,62.0,32.0,29.44,North,0,0.0,4.0,32,0.00,,,0.00,,2013-04-25 22:53:00,
2013-04-25 19:02:00,61.0,32.0,29.44,North,0,0.0,4.0,33,0.00,,,0.00,,2013-04-25 23:02:00,
2013-04-25 19:12:00,61.0,32.0,29.44,North,0,0.0,4.0,33,0.00,,,0.00,,2013-04-25 23:12:00,
2013-04-25 19:22:00,61.0,32.0,29.44,North,0,0.0,4.0,33,0.00,,,0.00,,2013-04-25 23:22:00,
2013-04-25 19:32:00,60.0,32.0,29.44,North,0,0.0,0.0,34,0.00,,,0.00,,2013-04-25 23:32:00,
2013-04-25 19:42:00,60.0,32.0,29.44,North,0,0.0,0.0,34,0.00,,,0.00,,2013-04-25 23:42:00,
2013-04-25 19:52:00,58.0,31.0,29.44,North,0,0.0,0.0,35,0.00,,,0.00,,2013-04-25 23:52:00,
2013-04-25 20:01:00,58.0,31.0,29.44,North,0,0.0,0.0,35,0.00,,,0.00,,2013-04-26 00:01:00,
2013-04-25 20:11:00,58.0,31.0,29.44,North,0,0.0,0.0,35,0.00,,,0.00,,2013-04-26 00:11:00,
2013-04-25 20:21:00,57.0,30.0,29.44,North,0,0.0,0.0,36,0.00,,,0.00,,2013-04-26 00:21:00,
2013-04-25 20:32:00,53.0,35.0,29.44,North,0,0.0,0.0,50,0.00,,,0.00,,2013-04-26 00:32:00,
2013-04-25 20:42:00,53.0,35.0,29.44,North,0,0.0,0.0,50,0.00,,,0.00,,2013-04-26 00:42:00,
2013-04-25 20:51:00,53.0,35.0,29.44,North,0,0.0,0.0,50,0.00,,,0.00,,2013-04-26 00:51:00,
2013-04-25 21:01:00,51.0,35.0,29.44,North,0,0.0,0.0,55,0.00,,,0.00,,2013-04-26 01:01:00,
2013-04-25 21:11:00,51.0,35.0,29.44,North,0,0.0,0.0,55,0.00,,,0.00,,2013-04-26 01:11:00,
2013-04-25 21:21:00,48.0,34.0,29.44,North,0,0.0,0.0,59,0.00,,,0.00,,2013-04-26 01:21:00,
2013-04-25 21:32:00,47.0,34.0,29.44,North,0,0.0,0.0,61,0.00,,,0.00,,2013-04-26 01:32:00,
2013-04-25 21:42:00,47.0,34.0,29.44,North,0,0.0,0.0,61,0.00,,,0.00,,2013-04-26 01:42:00,
2013-04-25 21:52:00,46.0,34.0,29.44,North,0,0.0,0.0,62,0.00,,,0.00,,2013-04-26 01:52:00,
2013-04-25 22:02:00,45.0,37.0,29.47,North,0,0.0,0.0,72,0.00,,,0.00,,2013-04-26 02:02:00,
2013-04-25 22:12:00,45.0,37.0,29.47,North,0,0.0,0.0,72,0.00,,,0.00,,2013-04-26 02:12:00,
2013-04-25 22:21:00,45.0,37.0,29.47,North,0,0.0,0.0,72,0.00,,,0.00,,2013-04-26 02:21:00,
2013-04-25 22:32:00,43.0,36.0,29.47,North,0,0.0,0.0,75,0.00,,,0.00,,2013-04-26 02:32:00,
2013-04-25 22:42:00,43.0,36.0,29.47,North,0,0.0,0.0,75,0.00,,,0.00,,2013-04-26 02:42:00,
2013-04-25 22:52:00,43.0,36.0,29.47,North,0,0.0,0.0,75,0.00,,,0.00,,2013-04-26 02:52:00,
2013-04-25 23:01:00,42.0,36.0,29.50,North,0,0.0,0.0,79,0.00,,,0.00,,2013-04-26 03:01:00,
2013-04-25 23:11:00,42.0,36.0,29.50,North,0,0.0,0.0,79,0.00,,,0.00,,2013-04-26 03:11:00,
2013-04-25 23:22:00,42.0,36.0,29.50,North,0,0.0,0.0,79,0.00,,,0.00,,2013-04-26 03:22:00,
2013-04-25 23:33:00,41.0,37.0,29.50,North,0,0.0,0.0,87,0.00,,,0.00,,2013-04-26 03:33:00,
2013-04-25 23:43:00,41.0,37.0,29.50,North,0,0.0,0.0,87,0.00,,,0.00,,2013-04-26 03:43:00,
2013-04-25 23:53:00,41.0,38.0,29.50,North,0,0.0,0.0,90,0.00,,,0.00,,2013-04-26 03:53:00,